sensor_id;sensor_type;location;lat;lon;timestamp;P1;durP1;ratioP1;P2;durP2;ratioP2
72864;SDS011;61000;48.120;11.548;2022-11-28T00:01:13;18.92;;;11.10;;
72864;SDS011;61000;48.120;11.548;2022-11-28T00:03:42;19.35;;;12.50;;
72864;SDS011;61000;48.120;11.548;2022-11-28T00:06:10;19.55;;;11.85;;
72864;SDS011;61000;48.120;11.548;2022-11-28T00:08:37;17.95;;;11.50;;
72864;SDS011;61000;48.120;11.548;2022-11-28T00:11:05;19.77;;;11.30;;
72864;SDS011;61000;48.120;11.548;2022-11-28T00:13:32;18.45;;;11.30;;
72864;SDS011;61000;48.120;11.548;2022-11-28T00:16:01;18.95;;;11.80;;
72864;SDS011;61000;48.120;11.548;2022-11-28T00:18:29;17.20;;;12.68;;
72864;SDS011;61000;48.120;11.548;2022-11-28T00:20:57;19.85;;;11.27;;
72864;SDS011;61000;48.120;11.548;2022-11-28T00:23:27;20.02;;;11.70;;
72864;SDS011;61000;48.120;11.548;2022-11-28T00:25:57;19.83;;;11.40;;
72864;SDS011;61000;48.120;11.548;2022-11-28T00:28:26;18.30;;;11.57;;
72864;SDS011;61000;48.120;11.548;2022-11-28T00:30:53;14.85;;;10.52;;
72864;SDS011;61000;48.120;11.548;2022-11-28T00:33:20;17.95;;;10.75;;
72864;SDS011;61000;48.120;11.548;2022-11-28T00:35:47;19.67;;;11.82;;
72864;SDS011;61000;48.120;11.548;2022-11-28T00:38:14;18.52;;;11.70;;
72864;SDS011;61000;48.120;11.548;2022-11-28T00:40:42;16.80;;;10.52;;
72864;SDS011;61000;48.120;11.548;2022-11-28T00:43:09;19.40;;;11.65;;
72864;SDS011;61000;48.120;11.548;2022-11-28T00:45:37;18.80;;;11.95;;
72864;SDS011;61000;48.120;11.548;2022-11-28T00:48:04;18.73;;;11.10;;
72864;SDS011;61000;48.120;11.548;2022-11-28T00:50:31;18.42;;;12.18;;
72864;SDS011;61000;48.120;11.548;2022-11-28T00:52:58;20.35;;;11.55;;
72864;SDS011;61000;48.120;11.548;2022-11-28T00:55:25;18.40;;;11.73;;
72864;SDS011;61000;48.120;11.548;2022-11-28T00:57:53;18.63;;;11.85;;
72864;SDS011;61000;48.120;11.548;2022-11-28T01:00:20;22.35;;;12.15;;
72864;SDS011;61000;48.120;11.548;2022-11-28T01:02:47;19.40;;;12.15;;
72864;SDS011;61000;48.120;11.548;2022-11-28T01:05:14;17.42;;;11.70;;
72864;SDS011;61000;48.120;11.548;2022-11-28T01:07:41;20.50;;;13.35;;
72864;SDS011;61000;48.120;11.548;2022-11-28T01:10:09;22.90;;;13.00;;
72864;SDS011;61000;48.120;11.548;2022-11-28T01:12:37;17.67;;;11.60;;
72864;SDS011;61000;48.120;11.548;2022-11-28T01:15:06;22.90;;;12.18;;
72864;SDS011;61000;48.120;11.548;2022-11-28T01:17:36;20.40;;;11.65;;
72864;SDS011;61000;48.120;11.548;2022-11-28T01:20:03;19.77;;;11.57;;
72864;SDS011;61000;48.120;11.548;2022-11-28T01:22:32;20.65;;;12.13;;
72864;SDS011;61000;48.120;11.548;2022-11-28T01:24:59;19.65;;;12.13;;
72864;SDS011;61000;48.120;11.548;2022-11-28T01:27:26;17.45;;;11.35;;
72864;SDS011;61000;48.120;11.548;2022-11-28T01:29:53;22.00;;;12.50;;
72864;SDS011;61000;48.120;11.548;2022-11-28T01:32:21;22.40;;;11.43;;
72864;SDS011;61000;48.120;11.548;2022-11-28T01:34:48;18.67;;;11.77;;
72864;SDS011;61000;48.120;11.548;2022-11-28T01:37:15;18.30;;;11.10;;
72864;SDS011;61000;48.120;11.548;2022-11-28T01:39:41;21.05;;;11.10;;
72864;SDS011;61000;48.120;11.548;2022-11-28T01:42:12;19.92;;;11.57;;
72864;SDS011;61000;48.120;11.548;2022-11-28T01:45:01;18.58;;;11.73;;
72864;SDS011;61000;48.120;11.548;2022-11-28T01:47:33;17.38;;;11.43;;
72864;SDS011;61000;48.120;11.548;2022-11-28T01:50:03;18.92;;;11.52;;
72864;SDS011;61000;48.120;11.548;2022-11-28T01:52:32;20.90;;;11.77;;
72864;SDS011;61000;48.120;11.548;2022-11-28T01:55:00;20.95;;;12.07;;
72864;SDS011;61000;48.120;11.548;2022-11-28T01:57:29;20.08;;;12.13;;
72864;SDS011;61000;48.120;11.548;2022-11-28T01:59:57;22.50;;;12.95;;
72864;SDS011;61000;48.120;11.548;2022-11-28T02:02:40;22.63;;;12.60;;
72864;SDS011;61000;48.120;11.548;2022-11-28T02:05:10;23.52;;;13.23;;
72864;SDS011;61000;48.120;11.548;2022-11-28T02:07:38;19.42;;;13.25;;
72864;SDS011;61000;48.120;11.548;2022-11-28T02:10:06;19.05;;;12.15;;
72864;SDS011;61000;48.120;11.548;2022-11-28T02:12:42;19.63;;;12.82;;
72864;SDS011;61000;48.120;11.548;2022-11-28T02:15:32;20.92;;;11.93;;
72864;SDS011;61000;48.120;11.548;2022-11-28T02:18:17;19.98;;;12.00;;
72864;SDS011;61000;48.120;11.548;2022-11-28T02:20:58;20.02;;;11.05;;
72864;SDS011;61000;48.120;11.548;2022-11-28T02:23:40;21.25;;;11.50;;
72864;SDS011;61000;48.120;11.548;2022-11-28T02:26:42;17.90;;;11.68;;
72864;SDS011;61000;48.120;11.548;2022-11-28T02:29:42;18.20;;;11.05;;
72864;SDS011;61000;48.120;11.548;2022-11-28T02:32:45;19.58;;;11.75;;
72864;SDS011;61000;48.120;11.548;2022-11-28T02:35:26;18.83;;;11.70;;
72864;SDS011;61000;48.120;11.548;2022-11-28T02:38:02;15.88;;;10.80;;
72864;SDS011;61000;48.120;11.548;2022-11-28T02:40:35;21.65;;;12.25;;
72864;SDS011;61000;48.120;11.548;2022-11-28T02:43:07;18.92;;;11.52;;
72864;SDS011;61000;48.120;11.548;2022-11-28T02:45:41;15.65;;;11.00;;
72864;SDS011;61000;48.120;11.548;2022-11-28T02:48:17;19.05;;;12.07;;
72864;SDS011;61000;48.120;11.548;2022-11-28T02:50:51;17.00;;;11.10;;
72864;SDS011;61000;48.120;11.548;2022-11-28T02:53:23;20.48;;;11.75;;
72864;SDS011;61000;48.120;11.548;2022-11-28T02:55:53;18.75;;;11.70;;
72864;SDS011;61000;48.120;11.548;2022-11-28T02:58:22;17.05;;;11.15;;
72864;SDS011;61000;48.120;11.548;2022-11-28T03:00:50;17.95;;;11.38;;
72864;SDS011;61000;48.120;11.548;2022-11-28T03:03:27;16.83;;;11.15;;
72864;SDS011;61000;48.120;11.548;2022-11-28T03:06:33;19.00;;;12.57;;
72864;SDS011;61000;48.120;11.548;2022-11-28T03:09:18;17.17;;;11.57;;
72864;SDS011;61000;48.120;11.548;2022-11-28T03:12:06;17.20;;;11.05;;
72864;SDS011;61000;48.120;11.548;2022-11-28T03:14:44;18.52;;;12.07;;
72864;SDS011;61000;48.120;11.548;2022-11-28T03:17:17;17.38;;;11.20;;
72864;SDS011;61000;48.120;11.548;2022-11-28T03:19:59;17.35;;;11.30;;
72864;SDS011;61000;48.120;11.548;2022-11-28T03:22:39;17.88;;;11.48;;
72864;SDS011;61000;48.120;11.548;2022-11-28T03:25:17;21.77;;;11.38;;
72864;SDS011;61000;48.120;11.548;2022-11-28T03:27:50;16.88;;;11.02;;
72864;SDS011;61000;48.120;11.548;2022-11-28T03:30:20;15.48;;;10.77;;
72864;SDS011;61000;48.120;11.548;2022-11-28T03:32:52;16.40;;;10.85;;
72864;SDS011;61000;48.120;11.548;2022-11-28T03:35:23;19.48;;;12.52;;
72864;SDS011;61000;48.120;11.548;2022-11-28T03:37:56;18.58;;;11.77;;
72864;SDS011;61000;48.120;11.548;2022-11-28T03:40:28;20.92;;;12.02;;
72864;SDS011;61000;48.120;11.548;2022-11-28T03:43:00;17.98;;;11.43;;
72864;SDS011;61000;48.120;11.548;2022-11-28T03:45:30;20.88;;;12.23;;
72864;SDS011;61000;48.120;11.548;2022-11-28T03:48:05;20.88;;;12.50;;
72864;SDS011;61000;48.120;11.548;2022-11-28T03:50:39;21.55;;;11.95;;
72864;SDS011;61000;48.120;11.548;2022-11-28T03:53:10;18.58;;;12.15;;
72864;SDS011;61000;48.120;11.548;2022-11-28T03:55:42;21.20;;;12.85;;
72864;SDS011;61000;48.120;11.548;2022-11-28T03:58:15;24.38;;;12.98;;
72864;SDS011;61000;48.120;11.548;2022-11-28T04:00:51;19.58;;;12.35;;
72864;SDS011;61000;48.120;11.548;2022-11-28T04:03:25;19.40;;;11.75;;
72864;SDS011;61000;48.120;11.548;2022-11-28T04:06:04;20.00;;;12.02;;
72864;SDS011;61000;48.120;11.548;2022-11-28T04:08:41;18.42;;;11.95;;
72864;SDS011;61000;48.120;11.548;2022-11-28T04:11:13;20.75;;;11.70;;
72864;SDS011;61000;48.120;11.548;2022-11-28T04:13:46;20.35;;;12.73;;
72864;SDS011;61000;48.120;11.548;2022-11-28T04:16:19;20.63;;;11.90;;
72864;SDS011;61000;48.120;11.548;2022-11-28T04:18:53;19.90;;;11.40;;
72864;SDS011;61000;48.120;11.548;2022-11-28T04:21:25;22.23;;;12.20;;
72864;SDS011;61000;48.120;11.548;2022-11-28T04:23:56;19.48;;;11.35;;
72864;SDS011;61000;48.120;11.548;2022-11-28T04:26:29;21.23;;;11.93;;
72864;SDS011;61000;48.120;11.548;2022-11-28T04:28:59;22.17;;;12.52;;
72864;SDS011;61000;48.120;11.548;2022-11-28T04:31:30;19.75;;;11.75;;
72864;SDS011;61000;48.120;11.548;2022-11-28T04:34:00;20.42;;;12.02;;
72864;SDS011;61000;48.120;11.548;2022-11-28T04:36:32;18.45;;;11.43;;
72864;SDS011;61000;48.120;11.548;2022-11-28T04:39:02;19.85;;;12.65;;
72864;SDS011;61000;48.120;11.548;2022-11-28T04:41:34;20.63;;;12.05;;
72864;SDS011;61000;48.120;11.548;2022-11-28T04:44:04;21.65;;;11.75;;
72864;SDS011;61000;48.120;11.548;2022-11-28T04:46:36;18.17;;;11.35;;
72864;SDS011;61000;48.120;11.548;2022-11-28T04:49:07;18.75;;;11.95;;
72864;SDS011;61000;48.120;11.548;2022-11-28T04:51:38;19.38;;;11.48;;
72864;SDS011;61000;48.120;11.548;2022-11-28T04:54:13;19.60;;;12.00;;
72864;SDS011;61000;48.120;11.548;2022-11-28T04:56:44;20.23;;;12.48;;
72864;SDS011;61000;48.120;11.548;2022-11-28T04:59:15;17.80;;;10.85;;
72864;SDS011;61000;48.120;11.548;2022-11-28T05:01:44;21.27;;;12.18;;
72864;SDS011;61000;48.120;11.548;2022-11-28T05:04:13;19.92;;;12.02;;
72864;SDS011;61000;48.120;11.548;2022-11-28T05:06:42;21.98;;;13.02;;
72864;SDS011;61000;48.120;11.548;2022-11-28T05:09:10;21.73;;;13.02;;
72864;SDS011;61000;48.120;11.548;2022-11-28T05:11:37;22.70;;;11.77;;
72864;SDS011;61000;48.120;11.548;2022-11-28T05:14:04;22.63;;;12.60;;
72864;SDS011;61000;48.120;11.548;2022-11-28T05:16:31;19.38;;;12.43;;
72864;SDS011;61000;48.120;11.548;2022-11-28T05:18:58;22.30;;;12.82;;
72864;SDS011;61000;48.120;11.548;2022-11-28T05:21:25;20.77;;;11.90;;
72864;SDS011;61000;48.120;11.548;2022-11-28T05:23:54;20.50;;;12.27;;
72864;SDS011;61000;48.120;11.548;2022-11-28T05:26:21;22.05;;;12.18;;
72864;SDS011;61000;48.120;11.548;2022-11-28T05:28:49;19.35;;;11.43;;
72864;SDS011;61000;48.120;11.548;2022-11-28T05:31:17;17.60;;;11.20;;
72864;SDS011;61000;48.120;11.548;2022-11-28T05:33:45;22.35;;;12.73;;
72864;SDS011;61000;48.120;11.548;2022-11-28T05:36:12;19.23;;;12.23;;
72864;SDS011;61000;48.120;11.548;2022-11-28T05:38:40;18.35;;;11.95;;
72864;SDS011;61000;48.120;11.548;2022-11-28T05:41:16;22.80;;;12.27;;
72864;SDS011;61000;48.120;11.548;2022-11-28T05:43:44;20.58;;;12.48;;
72864;SDS011;61000;48.120;11.548;2022-11-28T05:46:11;20.30;;;12.00;;
72864;SDS011;61000;48.120;11.548;2022-11-28T05:48:38;21.92;;;13.02;;
72864;SDS011;61000;48.120;11.548;2022-11-28T05:51:05;21.00;;;12.63;;
72864;SDS011;61000;48.120;11.548;2022-11-28T05:53:33;23.10;;;13.60;;
72864;SDS011;61000;48.120;11.548;2022-11-28T05:56:04;19.10;;;12.60;;
72864;SDS011;61000;48.120;11.548;2022-11-28T05:58:33;23.83;;;13.93;;
72864;SDS011;61000;48.120;11.548;2022-11-28T06:01:07;19.98;;;12.85;;
72864;SDS011;61000;48.120;11.548;2022-11-28T06:03:35;20.85;;;12.30;;
72864;SDS011;61000;48.120;11.548;2022-11-28T06:06:02;21.75;;;13.07;;
72864;SDS011;61000;48.120;11.548;2022-11-28T06:08:29;17.88;;;10.95;;
72864;SDS011;61000;48.120;11.548;2022-11-28T06:10:56;17.55;;;11.32;;
72864;SDS011;61000;48.120;11.548;2022-11-28T06:13:24;18.52;;;12.27;;
72864;SDS011;61000;48.120;11.548;2022-11-28T06:15:53;20.00;;;11.90;;
72864;SDS011;61000;48.120;11.548;2022-11-28T06:18:20;21.05;;;12.32;;
72864;SDS011;61000;48.120;11.548;2022-11-28T06:20:47;21.10;;;12.27;;
72864;SDS011;61000;48.120;11.548;2022-11-28T06:23:14;20.40;;;12.95;;
72864;SDS011;61000;48.120;11.548;2022-11-28T06:25:41;20.00;;;12.68;;
72864;SDS011;61000;48.120;11.548;2022-11-28T06:28:08;21.83;;;13.05;;
72864;SDS011;61000;48.120;11.548;2022-11-28T06:30:34;21.80;;;12.18;;
72864;SDS011;61000;48.120;11.548;2022-11-28T06:33:03;22.05;;;13.35;;
72864;SDS011;61000;48.120;11.548;2022-11-28T06:35:30;20.40;;;12.15;;
72864;SDS011;61000;48.120;11.548;2022-11-28T06:37:57;19.67;;;12.27;;
72864;SDS011;61000;48.120;11.548;2022-11-28T06:40:24;20.45;;;12.15;;
72864;SDS011;61000;48.120;11.548;2022-11-28T06:42:51;22.58;;;12.75;;
72864;SDS011;61000;48.120;11.548;2022-11-28T06:45:18;21.60;;;12.70;;
72864;SDS011;61000;48.120;11.548;2022-11-28T06:47:45;19.67;;;13.07;;
72864;SDS011;61000;48.120;11.548;2022-11-28T06:50:13;20.23;;;11.95;;
72864;SDS011;61000;48.120;11.548;2022-11-28T06:52:40;20.65;;;12.80;;
72864;SDS011;61000;48.120;11.548;2022-11-28T06:55:07;22.58;;;13.43;;
72864;SDS011;61000;48.120;11.548;2022-11-28T06:57:34;21.20;;;12.63;;
72864;SDS011;61000;48.120;11.548;2022-11-28T07:00:02;19.13;;;12.32;;
72864;SDS011;61000;48.120;11.548;2022-11-28T07:02:31;19.25;;;12.27;;
72864;SDS011;61000;48.120;11.548;2022-11-28T07:04:57;22.27;;;13.55;;
72864;SDS011;61000;48.120;11.548;2022-11-28T07:07:26;21.48;;;13.35;;
72864;SDS011;61000;48.120;11.548;2022-11-28T07:09:53;20.50;;;13.13;;
72864;SDS011;61000;48.120;11.548;2022-11-28T07:12:19;20.30;;;12.27;;
72864;SDS011;61000;48.120;11.548;2022-11-28T07:14:46;23.45;;;13.98;;
72864;SDS011;61000;48.120;11.548;2022-11-28T07:17:13;22.67;;;14.35;;
72864;SDS011;61000;48.120;11.548;2022-11-28T07:19:40;23.02;;;13.13;;
72864;SDS011;61000;48.120;11.548;2022-11-28T07:22:08;20.60;;;12.30;;
72864;SDS011;61000;48.120;11.548;2022-11-28T07:24:37;19.92;;;12.40;;
72864;SDS011;61000;48.120;11.548;2022-11-28T07:27:04;20.27;;;12.50;;
72864;SDS011;61000;48.120;11.548;2022-11-28T07:29:31;24.80;;;12.20;;
72864;SDS011;61000;48.120;11.548;2022-11-28T07:32:00;20.00;;;12.60;;
72864;SDS011;61000;48.120;11.548;2022-11-28T07:34:28;19.42;;;12.48;;
72864;SDS011;61000;48.120;11.548;2022-11-28T07:36:55;18.90;;;11.10;;
72864;SDS011;61000;48.120;11.548;2022-11-28T07:39:22;18.38;;;11.50;;
72864;SDS011;61000;48.120;11.548;2022-11-28T07:41:50;20.80;;;12.05;;
72864;SDS011;61000;48.120;11.548;2022-11-28T07:44:19;21.38;;;12.93;;
72864;SDS011;61000;48.120;11.548;2022-11-28T07:46:46;18.40;;;11.95;;
72864;SDS011;61000;48.120;11.548;2022-11-28T07:49:13;19.55;;;12.20;;
72864;SDS011;61000;48.120;11.548;2022-11-28T07:51:41;18.33;;;11.00;;
72864;SDS011;61000;48.120;11.548;2022-11-28T07:54:08;16.08;;;10.20;;
72864;SDS011;61000;48.120;11.548;2022-11-28T07:56:36;19.25;;;11.55;;
72864;SDS011;61000;48.120;11.548;2022-11-28T07:59:05;17.15;;;11.60;;
72864;SDS011;61000;48.120;11.548;2022-11-28T08:01:33;18.42;;;12.43;;
72864;SDS011;61000;48.120;11.548;2022-11-28T08:04:01;17.88;;;11.38;;
72864;SDS011;61000;48.120;11.548;2022-11-28T08:06:29;15.93;;;10.63;;
72864;SDS011;61000;48.120;11.548;2022-11-28T08:08:58;17.58;;;10.80;;
72864;SDS011;61000;48.120;11.548;2022-11-28T08:11:26;14.88;;;10.25;;
72864;SDS011;61000;48.120;11.548;2022-11-28T08:13:54;15.32;;;10.27;;
72864;SDS011;61000;48.120;11.548;2022-11-28T08:16:23;17.95;;;10.88;;
72864;SDS011;61000;48.120;11.548;2022-11-28T08:18:51;13.50;;;9.18;;
72864;SDS011;61000;48.120;11.548;2022-11-28T08:21:19;16.05;;;9.77;;
72864;SDS011;61000;48.120;11.548;2022-11-28T08:23:49;13.75;;;9.73;;
72864;SDS011;61000;48.120;11.548;2022-11-28T08:26:17;16.45;;;10.35;;
72864;SDS011;61000;48.120;11.548;2022-11-28T08:28:46;16.02;;;10.38;;
72864;SDS011;61000;48.120;11.548;2022-11-28T08:31:13;23.83;;;11.00;;
72864;SDS011;61000;48.120;11.548;2022-11-28T08:33:44;19.45;;;10.65;;
72864;SDS011;61000;48.120;11.548;2022-11-28T08:36:12;19.65;;;12.13;;
72864;SDS011;61000;48.120;11.548;2022-11-28T08:38:40;16.20;;;10.18;;
72864;SDS011;61000;48.120;11.548;2022-11-28T08:41:10;15.30;;;9.90;;
72864;SDS011;61000;48.120;11.548;2022-11-28T08:43:38;17.90;;;10.50;;
72864;SDS011;61000;48.120;11.548;2022-11-28T08:46:07;20.92;;;11.00;;
72864;SDS011;61000;48.120;11.548;2022-11-28T08:48:36;15.65;;;10.13;;
72864;SDS011;61000;48.120;11.548;2022-11-28T08:51:05;18.08;;;11.43;;
72864;SDS011;61000;48.120;11.548;2022-11-28T08:53:33;15.85;;;10.75;;
72864;SDS011;61000;48.120;11.548;2022-11-28T08:56:00;16.30;;;10.05;;
72864;SDS011;61000;48.120;11.548;2022-11-28T08:58:27;16.13;;;10.40;;
72864;SDS011;61000;48.120;11.548;2022-11-28T09:00:54;16.45;;;10.10;;
72864;SDS011;61000;48.120;11.548;2022-11-28T09:03:21;17.92;;;10.45;;
72864;SDS011;61000;48.120;11.548;2022-11-28T09:05:48;16.15;;;10.77;;
72864;SDS011;61000;48.120;11.548;2022-11-28T09:08:18;15.95;;;10.55;;
72864;SDS011;61000;48.120;11.548;2022-11-28T09:10:46;15.95;;;11.13;;
72864;SDS011;61000;48.120;11.548;2022-11-28T09:13:13;17.00;;;10.88;;
72864;SDS011;61000;48.120;11.548;2022-11-28T09:15:40;16.60;;;11.30;;
72864;SDS011;61000;48.120;11.548;2022-11-28T09:18:09;17.67;;;10.57;;
72864;SDS011;61000;48.120;11.548;2022-11-28T09:20:38;17.77;;;10.10;;
72864;SDS011;61000;48.120;11.548;2022-11-28T09:23:05;19.42;;;9.63;;
72864;SDS011;61000;48.120;11.548;2022-11-28T09:25:34;14.80;;;10.15;;
72864;SDS011;61000;48.120;11.548;2022-11-28T09:28:02;17.85;;;9.98;;
72864;SDS011;61000;48.120;11.548;2022-11-28T09:30:29;17.50;;;10.77;;
72864;SDS011;61000;48.120;11.548;2022-11-28T09:32:56;15.68;;;10.00;;
72864;SDS011;61000;48.120;11.548;2022-11-28T09:35:23;17.90;;;10.18;;
72864;SDS011;61000;48.120;11.548;2022-11-28T09:37:50;14.10;;;9.85;;
72864;SDS011;61000;48.120;11.548;2022-11-28T09:40:18;13.15;;;8.80;;
72864;SDS011;61000;48.120;11.548;2022-11-28T09:42:50;13.00;;;9.43;;
72864;SDS011;61000;48.120;11.548;2022-11-28T09:45:17;15.95;;;10.80;;
72864;SDS011;61000;48.120;11.548;2022-11-28T09:47:46;17.17;;;9.85;;
72864;SDS011;61000;48.120;11.548;2022-11-28T09:50:17;16.58;;;9.32;;
72864;SDS011;61000;48.120;11.548;2022-11-28T09:52:48;16.17;;;10.10;;
72864;SDS011;61000;48.120;11.548;2022-11-28T09:55:22;13.93;;;9.73;;
72864;SDS011;61000;48.120;11.548;2022-11-28T09:57:57;16.02;;;10.35;;
72864;SDS011;61000;48.120;11.548;2022-11-28T10:00:28;15.23;;;10.30;;
72864;SDS011;61000;48.120;11.548;2022-11-28T10:03:07;12.82;;;9.82;;
72864;SDS011;61000;48.120;11.548;2022-11-28T10:05:58;17.17;;;10.30;;
72864;SDS011;61000;48.120;11.548;2022-11-28T10:08:33;16.80;;;10.38;;
72864;SDS011;61000;48.120;11.548;2022-11-28T10:11:04;16.85;;;10.50;;
72864;SDS011;61000;48.120;11.548;2022-11-28T10:13:43;13.40;;;9.25;;
72864;SDS011;61000;48.120;11.548;2022-11-28T10:16:16;14.02;;;9.65;;
72864;SDS011;61000;48.120;11.548;2022-11-28T10:18:49;15.02;;;9.90;;
72864;SDS011;61000;48.120;11.548;2022-11-28T10:21:21;16.90;;;10.05;;
72864;SDS011;61000;48.120;11.548;2022-11-28T10:23:54;15.02;;;10.20;;
72864;SDS011;61000;48.120;11.548;2022-11-28T10:26:27;13.38;;;9.48;;
72864;SDS011;61000;48.120;11.548;2022-11-28T10:28:58;17.00;;;9.90;;
72864;SDS011;61000;48.120;11.548;2022-11-28T10:31:31;14.77;;;10.70;;
72864;SDS011;61000;48.120;11.548;2022-11-28T10:34:02;15.55;;;10.15;;
72864;SDS011;61000;48.120;11.548;2022-11-28T10:36:38;14.20;;;9.50;;
72864;SDS011;61000;48.120;11.548;2022-11-28T10:39:13;14.68;;;9.70;;
72864;SDS011;61000;48.120;11.548;2022-11-28T10:41:43;17.08;;;9.70;;
72864;SDS011;61000;48.120;11.548;2022-11-28T10:44:39;15.05;;;10.60;;
72864;SDS011;61000;48.120;11.548;2022-11-28T10:47:19;13.98;;;8.50;;
72864;SDS011;61000;48.120;11.548;2022-11-28T10:50:02;12.13;;;8.73;;
72864;SDS011;61000;48.120;11.548;2022-11-28T10:52:33;13.85;;;9.10;;
72864;SDS011;61000;48.120;11.548;2022-11-28T10:55:12;16.73;;;9.63;;
72864;SDS011;61000;48.120;11.548;2022-11-28T10:57:49;15.70;;;10.25;;
72864;SDS011;61000;48.120;11.548;2022-11-28T11:00:28;15.68;;;9.77;;
72864;SDS011;61000;48.120;11.548;2022-11-28T11:02:55;12.40;;;9.52;;
72864;SDS011;61000;48.120;11.548;2022-11-28T11:05:27;16.73;;;10.40;;
72864;SDS011;61000;48.120;11.548;2022-11-28T11:07:56;16.25;;;9.50;;
72864;SDS011;61000;48.120;11.548;2022-11-28T11:10:29;16.15;;;10.00;;
72864;SDS011;61000;48.120;11.548;2022-11-28T11:13:09;23.83;;;14.93;;
72864;SDS011;61000;48.120;11.548;2022-11-28T11:15:40;16.25;;;9.27;;
72864;SDS011;61000;48.120;11.548;2022-11-28T11:18:19;16.77;;;10.35;;
72864;SDS011;61000;48.120;11.548;2022-11-28T11:20:47;12.82;;;9.30;;
72864;SDS011;61000;48.120;11.548;2022-11-28T11:23:16;14.32;;;9.43;;
72864;SDS011;61000;48.120;11.548;2022-11-28T11:25:45;14.05;;;8.57;;
72864;SDS011;61000;48.120;11.548;2022-11-28T11:28:25;14.07;;;8.55;;
72864;SDS011;61000;48.120;11.548;2022-11-28T11:31:15;16.38;;;9.25;;
72864;SDS011;61000;48.120;11.548;2022-11-28T11:33:47;13.20;;;8.57;;
72864;SDS011;61000;48.120;11.548;2022-11-28T11:36:21;11.35;;;8.02;;
72864;SDS011;61000;48.120;11.548;2022-11-28T11:38:51;10.70;;;8.35;;
72864;SDS011;61000;48.120;11.548;2022-11-28T11:41:31;13.70;;;9.52;;
72864;SDS011;61000;48.120;11.548;2022-11-28T11:46:55;15.55;;;10.55;;
72864;SDS011;61000;48.120;11.548;2022-11-28T11:49:29;14.65;;;8.70;;
72864;SDS011;61000;48.120;11.548;2022-11-28T11:51:58;11.10;;;8.65;;
72864;SDS011;61000;48.120;11.548;2022-11-28T11:54:27;13.82;;;9.68;;
72864;SDS011;61000;48.120;11.548;2022-11-28T11:56:54;15.48;;;10.10;;
72864;SDS011;61000;48.120;11.548;2022-11-28T11:59:23;13.52;;;10.32;;
72864;SDS011;61000;48.120;11.548;2022-11-28T12:01:57;12.10;;;9.13;;
72864;SDS011;61000;48.120;11.548;2022-11-28T12:04:28;14.95;;;9.23;;
72864;SDS011;61000;48.120;11.548;2022-11-28T12:06:58;14.27;;;10.10;;
72864;SDS011;61000;48.120;11.548;2022-11-28T12:09:29;15.98;;;9.23;;
72864;SDS011;61000;48.120;11.548;2022-11-28T12:12:04;15.70;;;9.13;;
72864;SDS011;61000;48.120;11.548;2022-11-28T12:14:37;16.27;;;9.05;;
72864;SDS011;61000;48.120;11.548;2022-11-28T12:17:15;14.45;;;10.75;;
72864;SDS011;61000;48.120;11.548;2022-11-28T12:19:57;15.65;;;9.57;;
72864;SDS011;61000;48.120;11.548;2022-11-28T12:22:33;13.82;;;10.25;;
72864;SDS011;61000;48.120;11.548;2022-11-28T12:25:10;14.50;;;9.10;;
72864;SDS011;61000;48.120;11.548;2022-11-28T12:27:49;13.50;;;9.32;;
72864;SDS011;61000;48.120;11.548;2022-11-28T12:30:25;13.80;;;8.90;;
72864;SDS011;61000;48.120;11.548;2022-11-28T12:33:10;17.92;;;9.52;;
72864;SDS011;61000;48.120;11.548;2022-11-28T12:35:48;15.55;;;8.93;;
72864;SDS011;61000;48.120;11.548;2022-11-28T12:38:23;14.60;;;9.55;;
72864;SDS011;61000;48.120;11.548;2022-11-28T12:41:03;15.77;;;9.75;;
72864;SDS011;61000;48.120;11.548;2022-11-28T12:43:41;13.20;;;9.20;;
72864;SDS011;61000;48.120;11.548;2022-11-28T12:46:20;15.70;;;9.43;;
72864;SDS011;61000;48.120;11.548;2022-11-28T12:49:05;12.73;;;8.18;;
72864;SDS011;61000;48.120;11.548;2022-11-28T12:51:41;12.05;;;8.85;;
72864;SDS011;61000;48.120;11.548;2022-11-28T12:54:21;12.50;;;8.63;;
72864;SDS011;61000;48.120;11.548;2022-11-28T12:57:02;15.85;;;9.52;;
72864;SDS011;61000;48.120;11.548;2022-11-28T12:59:37;13.10;;;9.75;;
72864;SDS011;61000;48.120;11.548;2022-11-28T13:02:17;21.50;;;10.00;;
72864;SDS011;61000;48.120;11.548;2022-11-28T13:05:04;15.35;;;10.30;;
72864;SDS011;61000;48.120;11.548;2022-11-28T13:07:46;17.23;;;9.88;;
72864;SDS011;61000;48.120;11.548;2022-11-28T13:10:26;17.02;;;10.98;;
72864;SDS011;61000;48.120;11.548;2022-11-28T13:13:00;21.10;;;11.70;;
72864;SDS011;61000;48.120;11.548;2022-11-28T13:15:36;22.80;;;11.35;;
72864;SDS011;61000;48.120;11.548;2022-11-28T13:18:20;18.35;;;9.35;;
72864;SDS011;61000;48.120;11.548;2022-11-28T13:20:57;23.90;;;12.27;;
72864;SDS011;61000;48.120;11.548;2022-11-28T13:23:32;16.88;;;9.65;;
72864;SDS011;61000;48.120;11.548;2022-11-28T13:26:04;19.17;;;11.10;;
72864;SDS011;61000;48.120;11.548;2022-11-28T13:28:37;18.98;;;11.13;;
72864;SDS011;61000;48.120;11.548;2022-11-28T13:31:10;22.08;;;11.30;;
72864;SDS011;61000;48.120;11.548;2022-11-28T13:33:47;18.70;;;11.35;;
72864;SDS011;61000;48.120;11.548;2022-11-28T13:36:20;19.85;;;11.30;;
72864;SDS011;61000;48.120;11.548;2022-11-28T13:39:02;13.93;;;9.05;;
72864;SDS011;61000;48.120;11.548;2022-11-28T13:41:38;14.00;;;9.55;;
72864;SDS011;61000;48.120;11.548;2022-11-28T13:44:10;13.45;;;9.85;;
72864;SDS011;61000;48.120;11.548;2022-11-28T13:46:42;12.95;;;9.80;;
72864;SDS011;61000;48.120;11.548;2022-11-28T13:49:17;20.83;;;10.68;;
72864;SDS011;61000;48.120;11.548;2022-11-28T13:51:47;17.65;;;9.98;;
72864;SDS011;61000;48.120;11.548;2022-11-28T13:57:18;16.08;;;9.65;;
72864;SDS011;61000;48.120;11.548;2022-11-28T13:59:51;16.77;;;9.30;;
72864;SDS011;61000;48.120;11.548;2022-11-28T14:02:22;18.35;;;10.45;;
72864;SDS011;61000;48.120;11.548;2022-11-28T14:05:13;17.13;;;10.25;;
72864;SDS011;61000;48.120;11.548;2022-11-28T14:07:50;15.15;;;9.05;;
72864;SDS011;61000;48.120;11.548;2022-11-28T14:10:38;15.30;;;8.23;;
72864;SDS011;61000;48.120;11.548;2022-11-28T14:13:21;13.40;;;8.40;;
72864;SDS011;61000;48.120;11.548;2022-11-28T14:16:03;15.27;;;8.45;;
72864;SDS011;61000;48.120;11.548;2022-11-28T14:18:54;13.48;;;8.38;;
72864;SDS011;61000;48.120;11.548;2022-11-28T14:21:31;15.50;;;8.30;;
72864;SDS011;61000;48.120;11.548;2022-11-28T14:24:11;15.35;;;7.22;;
72864;SDS011;61000;48.120;11.548;2022-11-28T14:26:46;10.65;;;8.07;;
72864;SDS011;61000;48.120;11.548;2022-11-28T14:29:23;13.55;;;7.88;;
72864;SDS011;61000;48.120;11.548;2022-11-28T14:31:59;12.07;;;8.35;;
72864;SDS011;61000;48.120;11.548;2022-11-28T14:34:37;11.27;;;7.43;;
72864;SDS011;61000;48.120;11.548;2022-11-28T14:40:47;24.85;;;9.15;;
72864;SDS011;61000;48.120;11.548;2022-11-28T14:49:08;12.20;;;8.57;;
72864;SDS011;61000;48.120;11.548;2022-11-28T14:54:56;12.70;;;8.50;;
72864;SDS011;61000;48.120;11.548;2022-11-28T14:57:25;10.73;;;7.80;;